Strona główna
METAR-TAF:

METAR-TAF

Lotnisko :

Kunming, Chiny

Szerokość geograficzna: 25-01N, Długość geograficzna: 102-41E, wysokość: 1892 m

Aktualna obserwacja pogody

Raport powstał 39 minut temu, godzina 05:00 UTC
Wiatr 12 kt od południowy zachód
Temperatura 11°C
Wilgotność 62%
Ciśnienie 1018 hPa
Widzialność 10 km lub więcej
Przerywane chmury na wysokości 2300 ft
Przerywane chmury na wysokości 4000 ft

METAR: ZPPP 180500Z 23006MPS 9999 BKN023 BKN040 11/04 Q1018 NOSIG

czas: 13:39 (05:39 UTC)

Prognoza

Raport powstał 4 godziny i 34 minut temu, godzina 01:05 UTC
Prognoza ważna od 18 godzina 06 UTC do 19 godzina 06 UTC
Wiatr 12 kt od południowy zachód
Widzialność 10 km lub więcej
Rozproszone chmury na wysokości 2600 ft

TAF: ZPPP 180105Z 1806/1906 22006MPS 9999 SCT026 TX17/1808Z TN04/1823Z

Obserwacja i prognoza pogody dla ponad 4000 lotnisk (raport METAR i TAF).

Dostępne stacje oznaczono żółtymi i czerwonymi punktami na mapie.

Najedź kursorem aby zobaczyć nazwę stacji.

Kliknij aby zobaczyć obserwacje i prognozy pogody.

Aby zmienić mapę: kliknij na zielony przycisk z czarnym krzyżykiem, aby powiększyć; na zielony przycisk z myślnikiem, aby pomniejszyć; na zielone strzałki, aby przejść do map sąsiednich.


METAR-TAF: